Terminal Aerodrome Forecast
Issued by NWS Cleveland, OH

Home | Current Version | Previous Version | Text Only | Print | Product List | Glossary On
Versions: 1 2 3 4 5 6 7 8 9 10 11 12 13 14 15 16 17 18 19 20 21
000
FTUS41 KCLE 281300 AAA
TAFYNG
TAF AMD
KYNG 281316Z 2813/2912 02005KT P6SM BKN030
     FM281500 36006KT P6SM BKN035
     FM281700 35006KT P6SM FEW035
     FM290000 VRB03KT P6SM BKN250=

USA.gov is the U.S. government's official web portal to all federal, state and local government web resources and services.